Time;durP1;ratioP1;P1;durP2;ratioP2;P2;SDS_P1;SDS_P2;PMS_P1;PMS_P2;Temp;Humidity;BMP_temperature;BMP_pressure;BME280_temperature;BME280_humidity;BME280_pressure;Samples;Min_cycle;Max_cycle;Signal;HPM_P1;HPM_P2
2022/08/13 00:00:54;;;;;;;6.13;2.30;;;22.10;52.60;;;;;;5058849;28;20531;-78
2022/08/13 00:03:22;;;;;;;6.00;1.67;;;22.10;52.60;;;;;;5078656;28;20482;-78
2022/08/13 00:06:11;;;;;;;6.33;1.90;;;22.00;52.60;;;;;;5081520;28;20455;-78
2022/08/13 00:08:55;;;;;;;4.63;2.13;;;21.90;52.70;;;;;;5074031;28;20444;-77
2022/08/13 00:14:33;;;;;;;5.70;2.10;;;21.80;52.90;;;;;;5046798;28;20512;-77
2022/08/13 00:17:06;;;;;;;5.20;2.23;;;21.80;53.00;;;;;;5058564;28;20524;-77
2022/08/13 00:19:38;;;;;;;4.70;2.27;;;21.70;53.10;;;;;;5075010;28;20555;-77
2022/08/13 00:22:08;;;;;;;4.57;2.10;;;21.70;53.10;;;;;;5070564;28;21209;-78
2022/08/13 00:24:57;;;;;;;5.40;2.10;;;21.70;53.20;;;;;;5078235;28;20466;-78
2022/08/13 00:27:26;;;;;;;4.80;2.17;;;21.70;53.30;;;;;;5076137;28;20535;-76
2022/08/13 00:29:56;;;;;;;6.67;1.80;;;21.70;53.30;;;;;;5066201;28;20907;-79
2022/08/13 00:32:29;;;;;;;7.67;2.30;;;21.70;53.30;;;;;;5056053;28;20485;-77
2022/08/13 00:35:01;;;;;;;4.20;2.00;;;21.70;53.40;;;;;;5074812;28;20538;-77
2022/08/13 00:37:29;;;;;;;4.97;2.10;;;21.60;53.50;;;;;;5071184;28;20446;-77
2022/08/13 00:40:17;;;;;;;6.77;2.03;;;21.50;53.60;;;;;;5075453;28;20474;-77
2022/08/13 00:43:02;;;;;;;4.57;2.10;;;21.40;53.80;;;;;;5072033;28;20475;-76
2022/08/13 00:45:34;;;;;;;5.63;2.67;;;21.50;53.90;;;;;;5055782;28;21100;-77
2022/08/13 00:50:53;;;;;;;5.77;2.40;;;21.50;53.90;;;;;;5073016;28;20451;-77
2022/08/13 00:53:23;;;;;;;4.63;2.10;;;21.40;54.00;;;;;;5092964;28;20478;-77
2022/08/13 00:56:09;;;;;;;5.10;2.20;;;21.40;54.10;;;;;;5076720;28;20946;-78
2022/08/13 00:58:38;;;;;;;4.23;2.00;;;21.40;54.20;;;;;;5071776;28;20553;-77
2022/08/13 01:01:11;;;;;;;5.73;2.53;;;21.40;54.30;;;;;;5072244;28;20486;-75
2022/08/13 01:03:52;;;;;;;4.20;2.00;;;21.40;54.30;;;;;;5075216;28;21008;-78
2022/08/13 01:06:38;;;;;;;4.47;2.70;;;21.40;54.30;;;;;;5077274;28;20461;-77
2022/08/13 01:09:08;;;;;;;4.00;2.00;;;21.40;54.40;;;;;;5059705;28;20484;-75
2022/08/13 01:11:58;;;;;;;4.27;2.10;;;21.50;54.50;;;;;;5071212;28;20467;-77
2022/08/13 01:14:31;;;;;;;5.10;2.57;;;21.50;54.50;;;;;;5074365;28;20460;-78
2022/08/13 01:17:04;;;;;;;5.27;2.50;;;21.50;54.40;;;;;;5079884;28;20535;-76
2022/08/13 01:19:43;;;;;;;5.00;2.40;;;21.50;54.50;;;;;;5075081;28;21074;-77
2022/08/13 01:22:22;;;;;;;5.00;2.30;;;21.50;54.50;;;;;;5074253;28;21351;-77
2022/08/13 01:25:01;;;;;;;5.87;2.90;;;21.50;54.40;;;;;;5079133;28;20458;-77
2022/08/13 01:27:39;;;;;;;9.23;2.40;;;21.50;54.50;;;;;;5071135;28;20558;-78
2022/08/13 01:30:15;;;;;;;5.90;2.80;;;21.40;54.50;;;;;;5077763;28;20441;-78
2022/08/13 01:32:45;;;;;;;6.50;2.70;;;21.40;54.60;;;;;;5072954;28;20497;-76
2022/08/13 01:35:23;;;;;;;4.77;2.70;;;21.40;54.60;;;;;;5075925;28;20446;-77
2022/08/13 01:37:54;;;;;;;4.47;2.40;;;21.40;54.60;;;;;;5055470;28;20452;-78
2022/08/13 01:40:33;;;;;;;5.20;2.23;;;21.30;54.50;;;;;;5077284;28;20473;-77
2022/08/13 01:43:03;;;;;;;6.10;2.60;;;21.30;54.50;;;;;;5078428;28;20574;-77
2022/08/13 01:45:52;;;;;;;7.23;2.40;;;21.20;54.60;;;;;;5060331;28;20465;-75
2022/08/13 01:51:18;;;;;;;4.67;2.20;;;21.00;54.70;;;;;;5076022;28;20489;-78
2022/08/13 01:53:54;;;;;;;4.60;2.60;;;20.90;54.80;;;;;;5073498;28;21026;-76
2022/08/13 01:56:23;;;;;;;6.90;2.50;;;20.90;55.00;;;;;;5065384;28;20458;-76
2022/08/13 01:58:53;;;;;;;4.73;2.50;;;20.80;55.10;;;;;;5078176;28;20461;-77
2022/08/13 02:01:37;;;;;;;4.97;2.40;;;20.80;55.30;;;;;;5076610;28;20490;-77
2022/08/13 02:04:13;;;;;;;4.77;2.93;;;20.70;55.30;;;;;;5075830;28;20482;-76
2022/08/13 02:06:51;;;;;;;6.50;3.00;;;20.70;55.30;;;;;;5065501;28;21084;-76
2022/08/13 02:09:23;;;;;;;4.50;2.10;;;20.60;55.30;;;;;;5085794;28;20519;-77
2022/08/13 02:12:13;;;;;;;5.10;2.93;;;20.60;55.40;;;;;;5055378;28;20452;-76
2022/08/13 02:15:01;;;;;;;5.30;2.90;;;20.50;55.60;;;;;;5077234;28;20451;-77
2022/08/13 02:17:33;;;;;;;5.80;2.77;;;20.50;55.70;;;;;;5072390;28;20522;-77
2022/08/13 02:20:21;;;;;;;6.10;2.53;;;20.40;55.80;;;;;;5083058;28;21075;-76
2022/08/13 02:22:50;;;;;;;4.93;2.50;;;20.40;55.90;;;;;;5074049;28;20494;-76
2022/08/13 02:25:20;;;;;;;6.83;3.30;;;20.40;56.00;;;;;;5062227;28;21157;-77
2022/08/13 02:27:55;;;;;;;5.73;3.00;;;20.40;56.00;;;;;;5073375;28;20454;-77
2022/08/13 02:30:27;;;;;;;4.40;2.50;;;20.30;56.00;;;;;;5077855;28;22552;-78
2022/08/13 02:32:56;;;;;;;8.27;2.60;;;20.20;56.10;;;;;;5078047;28;21217;-76
2022/08/13 02:35:27;;;;;;;5.10;2.97;;;20.20;56.10;;;;;;5058443;28;20463;-75
2022/08/13 02:38:15;;;;;;;6.63;3.00;;;20.20;56.20;;;;;;5055363;28;20453;-75
2022/08/13 02:45:12;;;;;;;7.93;2.63;;;20.10;56.40;;;;;;5072866;28;20413;-75
2022/08/13 02:47:41;;;;;;;5.30;2.80;;;20.00;56.60;;;;;;5069969;28;20564;-75
2022/08/13 02:50:12;;;;;;;6.50;2.67;;;20.00;56.70;;;;;;5069496;28;21150;-75
2022/08/13 02:52:41;;;;;;;5.10;2.80;;;20.00;56.90;;;;;;5059853;28;20482;-76
2022/08/13 02:55:29;;;;;;;5.20;3.00;;;20.00;56.90;;;;;;5073846;28;20549;-76
2022/08/13 02:58:02;;;;;;;5.30;2.80;;;19.90;57.00;;;;;;5074033;28;20486;-74
2022/08/13 03:00:32;;;;;;;5.00;2.80;;;19.90;57.10;;;;;;5073287;28;20563;-75
2022/08/13 03:03:04;;;;;;;5.90;3.00;;;19.80;57.20;;;;;;5070837;28;20480;-74
2022/08/13 03:05:38;;;;;;;5.30;3.20;;;19.80;57.30;;;;;;5076917;28;20481;-75
2022/08/13 03:08:27;;;;;;;4.53;2.53;;;19.80;57.40;;;;;;5078584;28;20836;-75
2022/08/13 03:11:09;;;;;;;5.13;2.70;;;19.80;57.50;;;;;;5065641;28;20546;-76
2022/08/13 03:13:39;;;;;;;5.03;2.97;;;19.80;57.60;;;;;;5080459;28;20483;-75
2022/08/13 03:16:18;;;;;;;4.97;2.70;;;19.80;57.60;;;;;;5080286;28;20480;-74
2022/08/13 03:18:47;;;;;;;5.27;2.87;;;19.70;57.70;;;;;;5086780;28;20452;-75
2022/08/13 03:21:23;;;;;;;5.50;2.90;;;19.70;57.80;;;;;;5063705;28;20487;-75
2022/08/13 03:24:13;;;;;;;6.50;3.03;;;19.70;57.80;;;;;;5079778;28;20486;-75
2022/08/13 03:26:51;;;;;;;5.30;2.77;;;19.60;57.80;;;;;;5084873;28;20493;-76
2022/08/13 03:29:21;;;;;;;6.33;2.80;;;19.60;57.80;;;;;;5069488;28;20893;-75
2022/08/13 03:32:10;;;;;;;5.30;3.10;;;19.50;57.90;;;;;;5086258;28;20812;-74
2022/08/13 03:34:40;;;;;;;5.03;2.70;;;19.50;58.00;;;;;;5074802;28;20461;-73
2022/08/13 03:37:10;;;;;;;9.07;3.73;;;19.40;58.00;;;;;;5093300;28;20467;-74
2022/08/13 03:39:39;;;;;;;7.17;3.93;;;19.40;58.10;;;;;;5083612;28;20515;-74
2022/08/13 03:42:08;;;;;;;5.77;2.77;;;19.40;58.10;;;;;;5060674;28;20494;-74
2022/08/13 03:44:39;;;;;;;7.13;2.77;;;19.40;58.10;;;;;;5081351;28;20458;-75
2022/08/13 03:47:08;;;;;;;5.90;3.23;;;19.40;58.20;;;;;;5080280;28;20491;-74
2022/08/13 03:49:57;;;;;;;5.53;2.90;;;19.40;58.20;;;;;;5078064;28;20455;-76
2022/08/13 03:52:25;;;;;;;5.53;2.80;;;19.40;58.10;;;;;;5068671;28;20481;-75
2022/08/13 03:55:05;;;;;;;5.30;2.83;;;19.40;58.00;;;;;;5082440;28;20464;-76
2022/08/13 03:57:39;;;;;;;5.00;3.17;;;19.30;58.00;;;;;;5081130;28;21042;-76
2022/08/13 04:00:28;;;;;;;5.90;3.20;;;19.20;58.10;;;;;;5077864;28;20477;-75
2022/08/13 04:02:56;;;;;;;5.13;2.80;;;19.20;58.20;;;;;;5059997;28;20490;-75
2022/08/13 04:05:26;;;;;;;7.30;3.10;;;19.10;58.30;;;;;;5065892;28;20610;-75
2022/08/13 04:08:14;;;;;;;6.50;2.70;;;19.10;58.40;;;;;;5064870;28;20462;-73
2022/08/13 04:10:42;;;;;;;5.63;3.03;;;19.00;58.40;;;;;;5060335;28;20465;-74
2022/08/13 04:13:21;;;;;;;5.60;3.30;;;19.00;58.40;;;;;;5065010;28;20976;-73
2022/08/13 04:16:13;;;;;;;5.27;3.00;;;19.00;58.40;;;;;;5075482;28;20520;-76
2022/08/13 04:18:43;;;;;;;5.93;2.90;;;18.90;58.40;;;;;;5067876;28;20458;-76
2022/08/13 04:21:16;;;;;;;5.83;3.57;;;18.80;58.50;;;;;;5074400;28;20482;-75
2022/08/13 04:23:52;;;;;;;6.33;3.20;;;18.80;58.60;;;;;;5065956;28;20894;-75
2022/08/13 04:26:23;;;;;;;6.93;2.70;;;18.80;58.70;;;;;;5063530;28;20473;-76
2022/08/13 04:29:01;;;;;;;5.40;3.10;;;18.80;58.70;;;;;;5077524;28;20937;-74
2022/08/13 04:31:30;;;;;;;6.93;3.20;;;18.80;58.80;;;;;;5077757;28;20479;-76
2022/08/13 04:34:19;;;;;;;5.90;3.20;;;18.80;58.80;;;;;;5058823;28;20489;-75
2022/08/13 04:37:10;;;;;;;7.63;3.13;;;18.80;58.80;;;;;;5068309;28;21143;-76
2022/08/13 04:39:53;;;;;;;4.90;2.77;;;18.70;58.80;;;;;;5074853;28;20459;-75
2022/08/13 04:42:52;;;;;;;5.30;3.43;;;18.60;58.80;;;;;;5078186;28;20556;-76
2022/08/13 04:45:21;;;;;;;10.10;3.13;;;18.60;59.10;;;;;;5073410;28;21044;-76
2022/08/13 04:47:52;;;;;;;8.07;3.20;;;18.60;59.20;;;;;;5075817;28;20491;-76
2022/08/13 04:50:22;;;;;;;10.97;3.13;;;18.60;59.30;;;;;;5061425;28;20455;-76
2022/08/13 04:52:57;;;;;;;5.50;3.00;;;18.70;59.50;;;;;;5058538;28;20473;-75
2022/08/13 04:55:26;;;;;;;7.67;3.13;;;18.70;59.50;;;;;;5058659;28;20547;-75
2022/08/13 04:58:14;;;;;;;7.27;3.50;;;18.80;59.50;;;;;;5078926;28;21015;-76
2022/08/13 05:00:45;;;;;;;8.10;2.90;;;18.90;59.60;;;;;;5080105;28;20466;-76
2022/08/13 05:03:19;;;;;;;5.90;3.30;;;18.90;59.70;;;;;;5077184;28;20509;-75
2022/08/13 05:05:54;;;;;;;6.33;3.00;;;19.10;59.70;;;;;;5064336;28;20469;-77
2022/08/13 05:08:24;;;;;;;10.53;3.43;;;19.20;60.00;;;;;;5075658;28;20629;-77
2022/08/13 05:10:53;;;;;;;5.23;2.83;;;19.50;60.40;;;;;;5083548;28;20492;-75
2022/08/13 05:13:28;;;;;;;6.13;2.77;;;20.00;60.50;;;;;;5081521;28;21004;-76
2022/08/13 05:16:12;;;;;;;6.80;3.00;;;20.80;59.80;;;;;;5077196;28;20487;-76
2022/08/13 05:18:42;;;;;;;4.70;2.43;;;22.00;58.10;;;;;;5074063;28;20517;-75
2022/08/13 05:21:11;;;;;;;10.00;3.10;;;23.00;56.60;;;;;;5072088;28;20570;-75
2022/08/13 05:23:46;;;;;;;5.83;2.80;;;23.90;55.20;;;;;;5079133;28;20497;-75
2022/08/13 05:26:34;;;;;;;5.70;2.57;;;24.80;54.10;;;;;;5075780;28;20463;-75
2022/08/13 05:29:21;;;;;;;6.10;3.20;;;25.60;53.00;;;;;;5057784;28;20589;-75
2022/08/13 05:31:49;;;;;;;5.80;2.50;;;26.40;52.00;;;;;;5061543;28;20476;-74
2022/08/13 05:34:26;;;;;;;6.40;2.73;;;27.00;51.20;;;;;;5074257;28;20508;-75
2022/08/13 05:36:55;;;;;;;5.50;2.73;;;27.60;50.40;;;;;;5074922;28;20469;-76
2022/08/13 05:39:45;;;;;;;5.67;2.73;;;28.20;49.80;;;;;;5072745;28;20520;-76
2022/08/13 05:42:19;;;;;;;7.30;3.30;;;28.90;49.10;;;;;;5074551;28;20988;-76
2022/08/13 05:44:55;;;;;;;4.57;2.57;;;29.50;48.50;;;;;;5060284;28;21295;-75
2022/08/13 05:47:24;;;;;;;5.70;2.40;;;30.20;47.80;;;;;;5073932;28;20496;-76
2022/08/13 05:49:53;;;;;;;4.93;2.33;;;30.80;47.00;;;;;;5071981;28;20470;-75
2022/08/13 05:52:26;;;;;;;6.73;2.40;;;31.50;46.20;;;;;;5072938;28;20485;-75
2022/08/13 05:55:11;;;;;;;5.27;2.20;;;32.10;45.40;;;;;;5063940;28;21428;-75
2022/08/13 05:57:59;;;;;;;4.80;2.30;;;32.80;44.50;;;;;;5076164;28;20493;-77
2022/08/13 06:03:26;;;;;;;4.80;2.50;;;33.90;43.20;;;;;;5079711;28;20487;-75
2022/08/13 06:06:15;;;;;;;5.13;2.37;;;34.10;42.20;;;;;;5077126;28;20457;-76
2022/08/13 06:08:56;;;;;;;5.17;2.10;;;32.80;41.50;;;;;;5080006;28;20450;-75
2022/08/13 06:11:29;;;;;;;5.20;2.17;;;31.00;42.10;;;;;;5079257;28;20551;-75
2022/08/13 06:14:21;;;;;;;4.60;2.07;;;29.30;43.30;;;;;;5085841;28;20514;-75
2022/08/13 06:16:52;;;;;;;7.33;2.60;;;27.70;44.70;;;;;;5078573;28;20498;-74
2022/08/13 06:19:24;;;;;;;5.87;2.50;;;26.60;45.90;;;;;;5061937;28;20497;-76
2022/08/13 06:21:57;;;;;;;5.10;2.47;;;25.70;46.90;;;;;;5078859;28;20981;-77
2022/08/13 06:24:28;;;;;;;5.00;2.93;;;25.00;47.80;;;;;;5074900;28;20994;-75
2022/08/13 06:26:59;;;;;;;5.63;2.73;;;24.40;48.60;;;;;;5067762;28;20453;-75
2022/08/13 06:29:29;;;;;;;5.33;2.63;;;24.00;49.30;;;;;;5065584;28;21033;-77
2022/08/13 06:32:08;;;;;;;5.50;2.43;;;23.60;49.90;;;;;;5078635;28;20982;-76
2022/08/13 06:34:56;;;;;;;5.60;2.87;;;23.30;50.50;;;;;;5077899;28;20542;-76
2022/08/13 06:37:24;;;;;;;5.60;2.60;;;23.00;51.10;;;;;;5081533;28;20913;-76
2022/08/13 06:39:57;;;;;;;7.17;2.73;;;22.90;51.50;;;;;;5082877;28;20466;-77
2022/08/13 06:42:33;;;;;;;6.50;2.60;;;22.80;52.10;;;;;;5084295;28;20531;-78
2022/08/13 06:45:04;;;;;;;6.67;3.03;;;22.70;52.50;;;;;;5079556;28;20461;-77
2022/08/13 06:47:33;;;;;;;4.63;2.80;;;22.60;52.70;;;;;;5080832;28;20516;-77
2022/08/13 06:50:10;;;;;;;4.50;2.57;;;22.50;53.20;;;;;;5080851;28;20990;-77
2022/08/13 06:52:39;;;;;;;6.37;2.57;;;22.40;53.50;;;;;;5085833;28;20592;-78
2022/08/13 06:55:08;;;;;;;6.27;3.00;;;22.40;53.90;;;;;;5081517;28;20552;-76
2022/08/13 06:57:58;;;;;;;5.07;2.97;;;22.40;54.40;;;;;;5068400;28;20495;-78
2022/08/13 07:00:43;;;;;;;6.33;3.47;;;22.30;54.40;;;;;;5080928;28;20891;-75
2022/08/13 07:03:18;;;;;;;4.73;2.60;;;22.30;54.70;;;;;;5093816;27;20478;-76
2022/08/13 07:05:47;;;;;;;5.03;2.40;;;22.30;55.00;;;;;;5078013;28;20468;-77
2022/08/13 07:08:28;;;;;;;6.40;3.17;;;22.30;55.10;;;;;;5079581;28;21055;-77
2022/08/13 07:14:06;;;;;;;5.43;3.10;;;22.40;55.30;;;;;;5075709;28;20577;-76
2022/08/13 07:16:42;;;;;;;13.03;3.67;;;22.50;55.90;;;;;;5078555;28;20486;-75
2022/08/13 07:19:11;;;;;;;5.93;3.40;;;22.50;55.70;;;;;;5056578;28;20461;-74
2022/08/13 07:21:42;;;;;;;6.60;2.80;;;22.50;55.70;;;;;;5077287;28;20478;-77
2022/08/13 07:24:11;;;;;;;5.73;2.90;;;22.50;55.90;;;;;;5077295;28;20492;-76
2022/08/13 07:27:04;;;;;;;5.03;2.73;;;22.50;55.70;;;;;;5074902;28;20473;-74
2022/08/13 07:29:36;;;;;;;5.30;2.60;;;22.60;56.10;;;;;;5087587;28;20473;-76
2022/08/13 07:32:20;;;;;;;5.33;2.90;;;22.70;55.90;;;;;;5080293;28;20481;-77
2022/08/13 07:34:58;;;;;;;4.63;2.70;;;22.70;55.70;;;;;;5076633;28;20970;-76
2022/08/13 07:37:28;;;;;;;5.50;2.97;;;22.80;55.80;;;;;;5080047;28;20525;-76
2022/08/13 07:39:58;;;;;;;5.60;2.97;;;22.90;55.80;;;;;;5074426;28;20468;-76
2022/08/13 07:42:29;;;;;;;9.43;2.93;;;22.90;56.10;;;;;;5072124;28;20492;-75
2022/08/13 07:45:08;;;;;;;6.00;3.00;;;23.00;56.20;;;;;;5074517;28;20576;-77
2022/08/13 07:47:58;;;;;;;5.50;3.00;;;23.10;56.00;;;;;;5076366;28;20477;-75
2022/08/13 07:50:46;;;;;;;5.30;2.80;;;23.20;55.90;;;;;;5079310;28;20518;-76
2022/08/13 07:53:34;;;;;;;7.40;3.87;;;23.20;56.10;;;;;;5077247;28;20480;-76
2022/08/13 07:56:28;;;;;;;7.57;3.37;;;23.30;55.90;;;;;;5075337;28;20474;-74
2022/08/13 07:59:02;;;;;;;4.80;2.80;;;23.40;55.90;;;;;;5076236;28;20474;-76
2022/08/13 08:01:43;;;;;;;5.27;3.17;;;23.50;55.70;;;;;;5080556;28;20494;-75
2022/08/13 08:04:34;;;;;;;5.80;3.23;;;23.60;55.70;;;;;;5075235;28;20534;-76
2022/08/13 08:07:07;;;;;;;7.23;3.13;;;23.70;55.70;;;;;;5077105;28;20461;-76
2022/08/13 08:09:37;;;;;;;5.30;3.03;;;23.80;55.60;;;;;;5075558;28;20454;-76
2022/08/13 08:14:56;;;;;;;6.77;2.97;;;23.90;55.50;;;;;;5076277;28;20500;-74
2022/08/13 08:17:26;;;;;;;9.77;3.20;;;24.00;55.40;;;;;;5074833;28;20469;-75
2022/08/13 08:20:21;;;;;;;5.30;2.90;;;24.10;55.30;;;;;;5057298;28;20538;-75
2022/08/13 08:23:06;;;;;;;6.93;2.97;;;24.20;55.10;;;;;;5074025;28;20501;-75
2022/08/13 08:25:57;;;;;;;6.90;3.03;;;24.30;55.00;;;;;;5056908;28;20536;-76
2022/08/13 08:28:32;;;;;;;4.50;2.70;;;24.30;54.90;;;;;;5073490;28;20483;-76
2022/08/13 08:31:09;;;;;;;4.67;2.60;;;24.40;54.80;;;;;;5077343;28;20507;-75
2022/08/13 08:33:58;;;;;;;5.33;2.53;;;24.50;54.80;;;;;;5073299;28;20477;-76
2022/08/13 08:36:28;;;;;;;6.27;2.80;;;24.60;54.70;;;;;;5090317;28;20473;-76
2022/08/13 08:44:55;;;;;;;5.57;2.70;;;24.80;54.40;;;;;;5073478;28;20471;-77
2022/08/13 08:47:29;;;;;;;4.97;2.63;;;24.90;54.30;;;;;;5065979;28;20626;-75
2022/08/13 08:50:18;;;;;;;6.00;2.90;;;25.00;54.40;;;;;;5078921;28;20541;-75
2022/08/13 08:56:03;;;;;;;6.27;2.70;;;25.20;54.00;;;;;;5076285;28;20464;-76
2022/08/13 08:58:35;;;;;;;6.23;2.67;;;25.30;53.80;;;;;;5070758;28;20578;-76
2022/08/13 09:01:10;;;;;;;7.67;3.90;;;25.40;53.60;;;;;;5073338;28;20476;-75
2022/08/13 09:03:42;;;;;;;4.80;2.43;;;25.50;53.40;;;;;;5074245;28;20474;-75
2022/08/13 09:06:28;;;;;;;5.60;3.00;;;25.60;53.20;;;;;;5074974;28;20444;-75
2022/08/13 09:09:17;;;;;;;6.23;2.90;;;25.70;53.20;;;;;;5078115;28;20459;-75
2022/08/13 09:11:48;;;;;;;5.57;2.97;;;25.80;52.90;;;;;;5078613;28;20482;-75
2022/08/13 09:14:24;;;;;;;4.70;2.80;;;25.80;52.60;;;;;;5081183;28;20491;-75
2022/08/13 09:16:53;;;;;;;7.73;2.90;;;25.90;52.60;;;;;;5076100;28;20490;-74
2022/08/13 09:19:23;;;;;;;5.17;2.07;;;26.00;52.50;;;;;;5084222;28;20557;-74
2022/08/13 09:22:14;;;;;;;5.57;2.97;;;26.00;52.40;;;;;;5081280;28;20982;-75
2022/08/13 09:24:46;;;;;;;5.53;2.67;;;26.10;52.10;;;;;;5084570;28;20503;-75
2022/08/13 09:27:17;;;;;;;6.43;2.87;;;26.10;52.00;;;;;;5085996;28;20481;-74
2022/08/13 09:29:50;;;;;;;5.17;2.87;;;26.20;51.90;;;;;;5082630;28;21109;-76
2022/08/13 09:32:30;;;;;;;5.83;2.57;;;26.20;51.80;;;;;;5072744;28;20523;-76
2022/08/13 09:35:01;;;;;;;4.20;2.13;;;26.30;51.50;;;;;;5083504;28;20517;-75
2022/08/13 09:37:32;;;;;;;5.80;2.57;;;26.30;51.20;;;;;;5086454;28;20454;-75
2022/08/13 09:40:24;;;;;;;5.57;2.30;;;26.40;50.70;;;;;;5077109;28;20456;-74
2022/08/13 09:43:19;;;;;;;6.90;2.73;;;26.40;50.60;;;;;;5077951;28;20480;-74
2022/08/13 09:46:07;;;;;;;6.80;2.77;;;26.50;50.60;;;;;;5074659;28;20473;-76
2022/08/13 09:48:36;;;;;;;5.17;2.93;;;26.40;50.50;;;;;;5073961;28;20477;-76
2022/08/13 09:51:05;;;;;;;6.27;2.97;;;26.50;50.50;;;;;;5073782;28;20961;-76
2022/08/13 09:53:56;;;;;;;4.87;2.80;;;26.40;50.50;;;;;;5072305;28;20511;-75
2022/08/13 09:56:24;;;;;;;17.60;3.83;;;26.40;50.40;;;;;;5061629;28;21203;-79
2022/08/13 09:58:52;;;;;;;4.67;2.20;;;26.50;50.30;;;;;;5076275;28;20476;-78
2022/08/13 10:01:23;;;;;;;5.10;2.50;;;26.50;50.30;;;;;;5080429;28;20489;-79
2022/08/13 10:04:17;;;;;;;5.73;3.10;;;26.60;50.20;;;;;;5078264;28;20479;-78
2022/08/13 10:06:45;;;;;;;5.63;2.37;;;26.70;50.10;;;;;;5077370;28;20458;-79
2022/08/13 10:09:27;;;;;;;8.23;2.53;;;26.70;49.90;;;;;;5084029;28;20475;-78
2022/08/13 10:11:59;;;;;;;7.40;2.37;;;26.80;49.50;;;;;;5086755;28;20472;-77
2022/08/13 10:14:47;;;;;;;6.87;2.70;;;26.80;49.20;;;;;;5082056;28;20456;-78
2022/08/13 10:17:25;;;;;;;5.73;2.50;;;26.90;49.20;;;;;;5089818;28;20918;-79
2022/08/13 10:20:10;;;;;;;5.77;2.50;;;27.00;49.20;;;;;;5083047;28;20539;-79
2022/08/13 10:22:42;;;;;;;4.60;2.47;;;27.00;49.00;;;;;;5065923;28;21034;-79
2022/08/13 10:25:13;;;;;;;23.93;2.97;;;27.10;48.90;;;;;;5075605;28;20917;-78
2022/08/13 10:27:45;;;;;;;6.07;2.33;;;27.20;48.60;;;;;;5079973;28;20492;-78
2022/08/13 10:30:18;;;;;;;6.20;2.70;;;27.20;48.50;;;;;;5060843;28;20471;-79
2022/08/13 10:33:06;;;;;;;4.53;2.43;;;27.30;48.40;;;;;;5075749;28;20895;-78
2022/08/13 10:35:36;;;;;;;5.33;2.40;;;27.40;48.20;;;;;;5073087;28;20520;-79
2022/08/13 10:38:15;;;;;;;4.73;2.20;;;27.40;48.10;;;;;;5076560;28;20515;-79
2022/08/13 10:40:48;;;;;;;4.90;2.70;;;27.40;48.00;;;;;;5073826;28;20480;-80
2022/08/13 10:43:21;;;;;;;4.80;2.27;;;27.40;47.90;;;;;;5073445;28;20491;-79
2022/08/13 10:45:56;;;;;;;6.40;2.50;;;27.50;47.90;;;;;;5072403;28;20491;-80
2022/08/13 10:48:35;;;;;;;4.53;2.53;;;27.50;47.90;;;;;;5071694;28;20490;-80
2022/08/13 10:51:03;;;;;;;4.07;2.30;;;27.60;47.80;;;;;;5076012;28;20472;-82
2022/08/13 10:56:22;;;;;;;8.50;2.50;;;27.60;47.20;;;;;;5076697;28;20524;-81
2022/08/13 10:58:54;;;;;;;6.20;2.57;;;27.70;47.30;;;;;;5075516;28;20552;-80
2022/08/13 11:01:24;;;;;;;5.27;2.30;;;27.70;47.30;;;;;;5077892;28;20474;-81
2022/08/13 11:03:52;;;;;;;5.00;2.40;;;27.70;47.20;;;;;;5073031;28;20500;-81
2022/08/13 11:06:34;;;;;;;8.73;2.40;;;27.70;47.10;;;;;;5072725;28;21239;-81
2022/08/13 11:09:05;;;;;;;6.33;2.90;;;27.80;47.20;;;;;;5066992;28;20543;-80
2022/08/13 11:11:55;;;;;;;7.63;2.43;;;27.80;47.10;;;;;;5058467;28;20453;-81
2022/08/13 11:14:27;;;;;;;6.57;2.50;;;27.80;47.00;;;;;;5082026;28;20466;-79
2022/08/13 11:17:04;;;;;;;5.47;2.20;;;27.90;46.40;;;;;;5075710;28;20483;-80
2022/08/13 11:19:44;;;;;;;5.23;2.77;;;27.90;46.20;;;;;;5062611;28;20476;-79
2022/08/13 11:22:20;;;;;;;4.20;2.20;;;28.00;46.40;;;;;;5074576;28;20460;-80
2022/08/13 11:24:55;;;;;;;5.70;2.40;;;28.10;46.40;;;;;;5078094;28;20460;-80
2022/08/13 11:27:25;;;;;;;4.93;2.53;;;28.20;46.40;;;;;;5076083;28;20468;-80
2022/08/13 11:30:16;;;;;;;5.27;2.30;;;28.30;46.00;;;;;;5073290;28;20485;-80
2022/08/13 11:33:01;;;;;;;4.40;2.37;;;28.30;45.70;;;;;;5088487;28;21314;-80
2022/08/13 11:35:33;;;;;;;4.50;2.13;;;28.30;45.50;;;;;;5076158;28;20448;-81
2022/08/13 11:38:06;;;;;;;6.33;2.40;;;28.30;45.40;;;;;;5057146;28;20461;-80
2022/08/13 11:40:36;;;;;;;5.73;2.77;;;28.20;45.30;;;;;;5080707;28;20529;-80
2022/08/13 11:43:08;;;;;;;7.00;4.33;;;28.10;45.40;;;;;;5079182;28;20508;-80
2022/08/13 11:45:40;;;;;;;4.97;2.77;;;28.10;45.50;;;;;;5066893;28;20986;-79
2022/08/13 11:48:13;;;;;;;7.60;2.87;;;28.10;45.60;;;;;;5076477;28;20566;-81
2022/08/13 11:50:56;;;;;;;6.10;3.13;;;28.10;45.60;;;;;;5082534;28;20463;-81
2022/08/13 11:53:26;;;;;;;5.03;2.63;;;28.10;45.70;;;;;;5056080;28;20486;-82
2022/08/13 11:55:57;;;;;;;5.73;2.50;;;28.10;45.60;;;;;;5078388;28;20464;-79
2022/08/13 11:58:34;;;;;;;5.70;2.67;;;28.10;45.50;;;;;;5065825;28;20462;-80
2022/08/13 12:01:22;;;;;;;9.17;5.63;;;28.10;45.10;;;;;;5080572;28;20538;-80
2022/08/13 12:03:54;;;;;;;12.03;2.90;;;28.10;45.10;;;;;;5072388;28;20629;-79
2022/08/13 12:06:42;;;;;;;4.10;2.07;;;28.10;45.10;;;;;;5083169;28;20546;-80
2022/08/13 12:09:18;;;;;;;5.80;2.27;;;28.20;45.10;;;;;;5078636;28;20469;-80
2022/08/13 12:12:07;;;;;;;4.03;2.03;;;28.20;45.00;;;;;;5080440;28;20467;-80
2022/08/13 12:14:51;;;;;;;6.00;2.87;;;28.30;45.00;;;;;;5081496;28;20859;-80
2022/08/13 12:17:20;;;;;;;4.90;2.53;;;28.40;44.90;;;;;;5071243;28;20485;-80
2022/08/13 12:20:10;;;;;;;4.50;2.47;;;28.40;44.80;;;;;;5078075;28;20463;-79
2022/08/13 12:22:49;;;;;;;9.13;2.60;;;28.40;44.70;;;;;;5083234;28;20527;-80
2022/08/13 12:25:20;;;;;;;5.57;2.40;;;28.40;44.60;;;;;;5075792;28;20887;-80
2022/08/13 12:28:14;;;;;;;7.70;2.33;;;28.40;44.50;;;;;;5080856;28;20879;-79
2022/08/13 12:30:53;;;;;;;5.47;2.63;;;28.50;44.40;;;;;;5075989;28;20463;-80
2022/08/13 12:33:21;;;;;;;5.30;2.80;;;28.50;44.30;;;;;;5065164;28;21052;-79
2022/08/13 12:35:50;;;;;;;10.50;5.40;;;28.50;44.00;;;;;;5077535;28;20463;-80
2022/08/13 12:38:25;;;;;;;4.77;2.67;;;28.50;44.00;;;;;;5058635;28;20468;-79
2022/08/13 12:40:58;;;;;;;5.90;2.50;;;28.60;44.00;;;;;;5075068;28;20483;-80
2022/08/13 12:43:27;;;;;;;5.43;2.30;;;28.60;43.80;;;;;;5076150;28;21028;-79
2022/08/13 12:46:16;;;;;;;4.30;2.30;;;28.70;43.70;;;;;;5075979;28;21288;-78
2022/08/13 12:49:01;;;;;;;5.57;2.17;;;28.70;43.50;;;;;;5076905;28;20463;-81
2022/08/13 12:51:29;;;;;;;4.83;2.47;;;28.70;43.40;;;;;;5076265;28;20467;-80
2022/08/13 12:54:17;;;;;;;4.50;2.37;;;28.80;43.10;;;;;;5078701;28;20477;-80
2022/08/13 12:57:05;;;;;;;5.40;2.00;;;28.80;43.10;;;;;;5079002;28;20526;-78
2022/08/13 12:59:53;;;;;;;7.77;2.40;;;28.80;42.80;;;;;;5082812;28;21199;-81
2022/08/13 13:02:33;;;;;;;4.40;2.33;;;28.80;42.40;;;;;;5080571;28;20548;-80
2022/08/13 13:05:01;;;;;;;5.20;2.53;;;28.80;42.30;;;;;;5084464;28;20463;-80
2022/08/13 13:07:48;;;;;;;6.77;2.37;;;28.80;42.60;;;;;;5076996;28;20708;-81
2022/08/13 13:10:36;;;;;;;4.00;1.80;;;28.80;42.20;;;;;;5082064;28;20498;-82
2022/08/13 13:13:05;;;;;;;8.53;2.23;;;28.90;42.50;;;;;;5072622;28;20492;-82
2022/08/13 13:15:53;;;;;;;5.80;2.30;;;28.90;42.40;;;;;;5076855;28;20473;-82
2022/08/13 13:18:42;;;;;;;4.67;2.47;;;29.00;42.30;;;;;;5080944;28;20503;-81
2022/08/13 13:21:21;;;;;;;5.83;2.40;;;29.00;42.10;;;;;;5078572;28;20477;-81
2022/08/13 13:24:00;;;;;;;4.90;2.00;;;29.00;42.10;;;;;;5077531;28;20494;-81
2022/08/13 13:26:33;;;;;;;4.37;2.27;;;29.10;42.00;;;;;;5081635;28;20507;-80
2022/08/13 13:29:04;;;;;;;6.07;2.10;;;29.10;42.00;;;;;;5065410;28;20468;-80
2022/08/13 13:31:31;;;;;;;6.73;2.70;;;29.20;41.90;;;;;;5090009;28;20491;-80
2022/08/13 13:34:21;;;;;;;5.03;2.43;;;29.20;41.90;;;;;;5080874;28;20476;-81
2022/08/13 13:36:50;;;;;;;4.70;1.80;;;29.20;41.80;;;;;;5088529;28;21092;-81
2022/08/13 13:39:22;;;;;;;5.40;2.20;;;29.20;41.40;;;;;;5078893;28;20455;-80
2022/08/13 13:41:50;;;;;;;4.93;2.43;;;29.30;41.50;;;;;;5076040;28;20502;-81
2022/08/13 13:44:21;;;;;;;4.27;2.00;;;29.30;41.60;;;;;;5078709;28;20483;-81
2022/08/13 13:47:06;;;;;;;4.07;1.90;;;29.30;41.40;;;;;;5082799;28;20475;-80
2022/08/13 13:49:37;;;;;;;3.93;1.60;;;29.40;41.30;;;;;;5082155;28;20448;-78
2022/08/13 13:52:08;;;;;;;4.97;2.10;;;29.40;41.00;;;;;;5060896;28;20468;-81
2022/08/13 13:54:37;;;;;;;5.43;2.40;;;29.50;40.80;;;;;;5079953;28;21006;-81
2022/08/13 13:57:06;;;;;;;9.50;2.50;;;29.50;40.80;;;;;;5077247;28;20450;-78
2022/08/13 13:59:34;;;;;;;5.70;2.30;;;29.50;41.00;;;;;;5081145;28;20517;-80
2022/08/13 14:02:16;;;;;;;4.83;2.00;;;29.50;41.00;;;;;;5079867;28;20472;-81
2022/08/13 14:04:49;;;;;;;4.53;2.33;;;29.50;40.80;;;;;;5083238;28;20456;-80
2022/08/13 14:07:38;;;;;;;4.30;2.33;;;29.50;40.70;;;;;;5076783;28;20471;-80